CheckWX is a tool to help pilots better visualize weather data.  It is not intended as a substitute for an official pre-flight weather briefing.

20:46:36 UTC

KLEB TAF
Lebanon Municipal Airport
Lebanon, New Hampshire, USA
KLEB 221900Z 2219/2318 32005KT 5SM -SHSN BKN015 OVC025 TEMPO 2219/2223 2SM -SHSN SCT015 BKN025 OVC040 FM222300 33011G19KT P6SM BKN025 OVC040 FM231100 32014G22KT P6SM OVC040

Mar-22@
19:00 UTC

Mar-22 @ 19:00 UTC

Mar-22@
23:00 UTC

Mar-22 @ 23:00 UTC

KLEB 221900Z 2219/2318 32005KT 5SM -SHSN BKN015 OVC025
Wind
  • 320° at 5 KTS
Conditions
Light Snow
Cloud Levels
  • Broken at 1,500' AGL
  • Overcast at 2,500' AGL

Mar-22@
19:00 UTC

Mar-22 @ 19:00 UTC

Mar-22@
23:00 UTC

Mar-22 @ 23:00 UTC

TEMPO 2219/2223 2SM -SHSN SCT015 BKN025 OVC040

Temporary

Temporary Changes expected for less than half the time period

Conditions
Light Snow
Cloud Levels
  • Scattered at 1,500' AGL
  • Broken at 2,500' AGL
  • Overcast at 4,000' AGL

Mar-22@
23:00 UTC

Mar-22 @ 23:00 UTC

Mar-23@
11:00 UTC

Mar-23 @ 11:00 UTC

FM222300 33011G19KT P6SM BKN025 OVC040

From

From Standard forecast or significant change

Wind
  • 330° at 11 KTS
  • {Gusting to 19 KTS
Cloud Levels
  • Broken at 2,500' AGL
  • Overcast at 4,000' AGL

Mar-23@
11:00 UTC

Mar-23 @ 11:00 UTC

Mar-23@
18:00 UTC

Mar-23 @ 18:00 UTC

FM231100 32014G22KT P6SM OVC040

From

From Standard forecast or significant change

Wind
  • 320° at 14 KTS
  • {Gusting to 22 KTS
Cloud Levels
  • Overcast at 4,000' AGL